Airport View

Enter AWOS ICAO identifier for current METAR.

ex. KFNL

KRYV 290530Z AUTO 00000KT 10SM CLR 07/07 A2983 RMK AO2 T00730073

29 Sep 2020 05:33

Frequency: 119.975

Phone: 920-261-0734

Other Area AWOS: KUNU - KUES - KMSN - K57C

TAF AMD KUES 290335Z 2904/2924 27008KT P6SM BKN060 FM290500 27007KT P6SM FEW070 FM291500 26010KT P6SM BKN035